Time;durP1;ratioP1;P1;durP2;ratioP2;P2;SDS_P1;SDS_P2;PMS_P1;PMS_P2;Temp;Humidity;BMP_temperature;BMP_pressure;BME280_temperature;BME280_humidity;BME280_pressure;Samples;Min_cycle;Max_cycle;Signal;HPM_P1;HPM_P2
2022/09/10 00:01:27;;;;;;;17.25;9.32;;;;;;;21.04;67.98;99511.00;4996412;28;20062;-83
2022/09/10 00:03:53;;;;;;;11.82;10.00;;;;;;;20.77;68.71;99494.78;4995305;28;20042;-84
2022/09/10 00:06:19;;;;;;;17.02;10.18;;;;;;;20.90;68.27;99501.13;4994433;28;20153;-83
2022/09/10 00:08:46;;;;;;;15.77;11.18;;;;;;;20.77;68.90;99519.75;4981834;28;20035;-84
2022/09/10 00:11:13;;;;;;;13.95;9.98;;;;;;;20.91;69.54;99551.09;4975572;28;20031;-83
2022/09/10 00:13:40;;;;;;;17.38;11.35;;;;;;;20.71;70.02;99528.16;4976602;28;20034;-83
2022/09/10 00:16:08;;;;;;;12.75;9.70;;;;;;;20.59;70.12;99494.91;4958359;28;20117;-83
2022/09/10 00:18:34;;;;;;;16.60;10.70;;;;;;;20.73;69.68;99510.19;4989571;28;20043;-83
2022/09/10 00:21:03;;;;;;;18.65;12.23;;;;;;;20.55;70.68;99529.03;4994767;28;20030;-83
2022/09/10 00:23:29;;;;;;;14.82;10.43;;;;;;;20.92;70.68;99566.22;4995076;28;20513;-84
2022/09/10 00:25:56;;;;;;;14.48;11.13;;;;;;;20.74;70.70;99544.06;4994587;28;20049;-83
2022/09/10 00:28:24;;;;;;;13.52;9.88;;;;;;;20.88;70.53;99576.28;4994549;28;20070;-84
2022/09/10 00:30:53;;;;;;;15.65;9.68;;;;;;;20.61;71.49;99549.25;4994537;28;20070;-83
2022/09/10 00:33:19;;;;;;;14.75;9.98;;;;;;;20.57;71.42;99537.88;4994269;28;20408;-83
2022/09/10 00:35:45;;;;;;;14.95;10.45;;;;;;;20.37;72.15;99519.41;4994001;28;20109;-83
2022/09/10 00:38:13;;;;;;;18.95;9.40;;;;;;;20.47;72.02;99525.09;4994438;28;20124;-83
2022/09/10 00:40:40;;;;;;;14.05;9.73;;;;;;;20.32;71.62;99482.16;4994278;28;20027;-83
2022/09/10 00:43:13;;;;;;;15.07;9.98;;;;;;;20.71;70.87;99547.78;4977399;28;20148;-83
2022/09/10 00:45:40;;;;;;;10.80;8.48;;;;;;;20.52;71.19;99521.16;4994256;28;20030;-83
2022/09/10 00:48:15;;;;;;;13.38;9.88;;;;;;;20.81;70.91;99569.53;4994728;28;20097;-83
2022/09/10 00:50:44;;;;;;;13.38;9.55;;;;;;;20.60;70.34;99509.16;4994293;28;20113;-83
2022/09/10 00:53:15;;;;;;;17.35;9.93;;;;;;;20.71;70.09;99531.72;4994135;28;20030;-83
2022/09/10 00:55:46;;;;;;;13.20;9.30;;;;;;;20.87;70.17;99538.84;4993925;28;20061;-83
2022/09/10 00:58:13;;;;;;;16.70;10.82;;;;;;;20.63;70.46;99515.19;4992878;28;20464;-83
2022/09/10 01:00:40;;;;;;;14.18;10.45;;;;;;;20.45;70.57;99495.72;4994453;28;20034;-83
2022/09/10 01:03:10;;;;;;;13.90;9.38;;;;;;;20.46;70.60;99513.50;4994397;28;20117;-83
2022/09/10 01:05:37;;;;;;;14.38;9.63;;;;;;;20.72;70.28;99533.41;4993642;28;20038;-83
2022/09/10 01:08:03;;;;;;;14.20;9.30;;;;;;;20.69;70.48;99543.47;4994196;28;20030;-83
2022/09/10 01:10:40;;;;;;;12.32;9.45;;;;;;;20.61;70.60;99522.44;4993686;28;20034;-83
2022/09/10 01:13:17;;;;;;;14.65;9.63;;;;;;;20.83;70.64;99561.41;4994402;28;20039;-83
2022/09/10 01:15:55;;;;;;;15.27;9.65;;;;;;;20.97;70.99;99588.25;4993674;28;20089;-83
2022/09/10 01:18:39;;;;;;;15.75;11.38;;;;;;;21.01;70.64;99583.59;4986762;28;20079;-83
2022/09/10 01:21:07;;;;;;;14.63;9.48;;;;;;;20.98;70.80;99579.25;4994045;28;20038;-83
2022/09/10 01:23:40;;;;;;;13.07;10.07;;;;;;;21.03;70.30;99577.16;4997194;28;20041;-83
2022/09/10 01:26:35;;;;;;;16.00;10.50;;;;;;;20.86;71.03;99585.34;5013252;28;20033;-83
2022/09/10 01:29:57;;;;;;;19.48;11.20;;;;;;;20.31;70.85;99544.75;5013476;28;20068;-83
2022/09/10 01:32:52;;;;;;;18.02;11.68;;;;;;;20.17;71.56;99529.47;5006593;28;20046;-84
2022/09/10 01:35:29;;;;;;;15.65;10.68;;;;;;;20.15;71.58;99536.69;4987214;28;20050;-83
2022/09/10 01:37:59;;;;;;;19.33;11.13;;;;;;;20.20;71.68;99521.25;4993714;28;20038;-83
2022/09/10 01:40:28;;;;;;;19.90;13.05;;;;;;;20.07;71.74;99498.81;4993432;28;20508;-83
2022/09/10 01:43:03;;;;;;;18.77;12.50;;;;;;;20.12;72.15;99514.59;4994494;28;20468;-83
2022/09/10 01:45:35;;;;;;;23.70;11.68;;;;;;;20.04;72.19;99531.09;5006527;28;20498;-83
2022/09/10 01:48:24;;;;;;;18.48;12.38;;;;;;;19.98;71.83;99512.72;4993573;28;20060;-83
2022/09/10 01:51:21;;;;;;;19.67;11.70;;;;;;;20.44;72.09;99579.72;4985247;28;20038;-83
2022/09/10 01:54:15;;;;;;;24.63;12.93;;;;;;;20.26;71.91;99535.22;4995369;28;20030;-83
2022/09/10 01:56:57;;;;;;;18.55;11.10;;;;;;;20.48;72.03;99585.75;4991070;28;20050;-83
2022/09/10 01:59:37;;;;;;;14.68;11.07;;;;;;;19.88;72.39;99490.97;4989266;28;20452;-83
2022/09/10 02:02:13;;;;;;;16.70;10.85;;;;;;;19.98;72.33;99532.31;4987370;28;20435;-84
2022/09/10 02:04:41;;;;;;;16.15;10.38;;;;;;;19.89;72.80;99542.69;5000701;28;20427;-83
2022/09/10 02:07:10;;;;;;;15.50;10.05;;;;;;;19.98;72.52;99539.47;5012672;28;20037;-83
2022/09/10 02:09:35;;;;;;;12.85;10.15;;;;;;;19.88;72.45;99514.16;5007674;28;20030;-84
2022/09/10 02:12:01;;;;;;;14.48;10.23;;;;;;;19.84;72.18;99482.22;5000925;28;20035;-84
2022/09/10 02:14:27;;;;;;;14.60;11.70;;;;;;;19.79;72.23;99475.44;4999083;28;20113;-84
2022/09/10 02:16:57;;;;;;;14.00;9.75;;;;;;;20.03;71.98;99500.81;5012642;28;20057;-83
2022/09/10 02:19:24;;;;;;;16.48;9.82;;;;;;;19.90;72.21;99499.75;4991842;28;20457;-83
2022/09/10 02:21:50;;;;;;;18.02;12.02;;;;;;;19.67;72.82;99488.50;5004050;28;20104;-83
2022/09/10 02:24:16;;;;;;;14.07;9.82;;;;;;;19.82;73.12;99515.41;5010583;28;20030;-83
2022/09/10 02:26:43;;;;;;;13.25;10.57;;;;;;;19.95;72.63;99523.59;4992762;28;20022;-83
2022/09/10 02:29:11;;;;;;;15.20;10.88;;;;;;;19.73;72.85;99479.28;4992814;28;20037;-82
2022/09/10 02:31:37;;;;;;;14.20;9.50;;;;;;;19.73;72.62;99500.69;4994042;28;20112;-84
2022/09/10 02:34:02;;;;;;;18.55;10.75;;;;;;;20.11;71.90;99563.75;4994901;28;20034;-83
2022/09/10 02:36:28;;;;;;;15.60;10.18;;;;;;;19.88;72.50;99555.22;5011798;28;20582;-83
2022/09/10 02:38:57;;;;;;;14.73;9.40;;;;;;;19.67;72.81;99527.78;4985572;28;20045;-82
2022/09/10 02:41:24;;;;;;;17.45;8.77;;;;;;;19.83;72.24;99535.84;4992015;28;20117;-83
2022/09/10 02:43:53;;;;;;;11.63;8.45;;;;;;;19.73;72.10;99498.00;4992737;28;20026;-83
2022/09/10 02:46:19;;;;;;;10.15;7.35;;;;;;;19.91;72.04;99547.00;4976163;28;20050;-83
2022/09/10 02:48:44;;;;;;;12.05;8.48;;;;;;;19.96;72.08;99541.41;4991884;28;20072;-84
2022/09/10 02:51:11;;;;;;;11.32;7.97;;;;;;;19.69;72.50;99491.09;4999513;28;20029;-83
2022/09/10 02:53:37;;;;;;;14.18;9.00;;;;;;;19.71;72.61;99480.31;5011892;28;20546;-83
2022/09/10 02:56:03;;;;;;;11.80;8.30;;;;;;;20.11;71.45;99526.25;5010758;28;20029;-83
2022/09/10 02:58:32;;;;;;;10.13;6.75;;;;;;;19.99;70.91;99536.72;4979082;28;20050;-83
2022/09/10 03:01:07;;;;;;;9.13;7.50;;;;;;;19.80;70.76;99493.19;5000026;28;20053;-83
2022/09/10 03:03:34;;;;;;;10.15;7.50;;;;;;;20.10;70.99;99560.22;5011661;28;20113;-83
2022/09/10 03:05:59;;;;;;;9.40;6.93;;;;;;;19.86;71.51;99538.34;4995410;28;20042;-83
2022/09/10 03:08:25;;;;;;;9.07;6.80;;;;;;;19.87;71.49;99548.13;4991336;28;20424;-83
2022/09/10 03:10:50;;;;;;;10.52;7.13;;;;;;;19.88;71.63;99552.53;5002513;28;20025;-83
2022/09/10 03:13:16;;;;;;;9.85;7.47;;;;;;;20.00;71.59;99577.72;5011540;28;20121;-84
2022/09/10 03:15:42;;;;;;;8.48;6.32;;;;;;;19.59;71.17;99500.59;5010477;28;20033;-85
2022/09/10 03:18:08;;;;;;;19.63;6.18;;;;;;;19.76;71.36;99529.09;5011824;28;20054;-86
2022/09/10 03:20:34;;;;;;;9.98;7.03;;;;;;;19.87;71.18;99556.16;5010642;28;20060;-85
2022/09/10 03:22:59;;;;;;;11.40;6.85;;;;;;;19.92;71.34;99585.34;5011046;28;20036;-84
2022/09/10 03:25:25;;;;;;;14.38;6.50;;;;;;;19.66;71.46;99552.78;5000445;28;20477;-84
2022/09/10 03:27:51;;;;;;;13.63;7.80;;;;;;;19.45;71.41;99498.69;4991201;28;20038;-84
2022/09/10 03:30:16;;;;;;;7.95;6.53;;;;;;;19.62;71.59;99536.06;4991537;28;20576;-84
2022/09/10 03:32:43;;;;;;;9.20;7.50;;;;;;;19.66;71.66;99547.44;4991819;28;20109;-84
2022/09/10 03:35:09;;;;;;;11.23;7.70;;;;;;;19.68;71.62;99557.13;5001479;28;20088;-84
2022/09/10 03:37:34;;;;;;;12.77;8.35;;;;;;;19.46;71.81;99511.97;4991480;28;20444;-83
2022/09/10 03:40:00;;;;;;;9.57;7.28;;;;;;;19.63;71.97;99555.63;4990241;28;20034;-85
2022/09/10 03:42:25;;;;;;;10.02;7.07;;;;;;;19.79;71.70;99556.56;5001558;28;20056;-85
2022/09/10 03:44:51;;;;;;;12.18;8.82;;;;;;;19.61;71.82;99552.19;5010010;28;20492;-86
2022/09/10 03:47:17;;;;;;;12.00;8.25;;;;;;;19.55;72.10;99555.22;5010287;28;20403;-86
2022/09/10 03:49:42;;;;;;;10.23;7.70;;;;;;;19.47;71.78;99547.59;5010879;28;20065;-86
2022/09/10 03:52:11;;;;;;;12.85;7.82;;;;;;;19.38;72.16;99540.06;5010419;28;20034;-85
2022/09/10 03:54:37;;;;;;;10.15;7.78;;;;;;;19.44;71.38;99527.22;5003852;28;20511;-86
2022/09/10 03:57:02;;;;;;;12.68;8.05;;;;;;;19.47;72.08;99574.34;5005976;28;20109;-86
2022/09/10 03:59:28;;;;;;;9.48;7.40;;;;;;;19.33;72.22;99548.34;4998362;28;20041;-84
2022/09/10 04:01:54;;;;;;;9.55;7.35;;;;;;;19.29;72.37;99515.56;4973497;28;20034;-84
2022/09/10 04:04:19;;;;;;;11.23;8.60;;;;;;;19.38;72.88;99561.47;4982554;28;20038;-83
2022/09/10 04:06:45;;;;;;;10.98;9.15;;;;;;;19.45;71.55;99528.97;4973480;28;20022;-84
2022/09/10 04:09:10;;;;;;;15.98;8.10;;;;;;;19.07;71.83;99491.75;4991055;28;20038;-83
2022/09/10 04:11:36;;;;;;;13.90;8.25;;;;;;;19.28;72.42;99558.44;4998934;28;20471;-85
2022/09/10 04:14:01;;;;;;;11.65;8.15;;;;;;;19.30;72.51;99562.72;5006424;28;20386;-84
2022/09/10 04:16:27;;;;;;;11.05;8.43;;;;;;;19.33;72.60;99583.09;4993889;28;20037;-85
2022/09/10 04:18:53;;;;;;;16.15;10.55;;;;;;;19.42;72.45;99574.59;5010522;28;20069;-85
2022/09/10 04:21:19;;;;;;;17.92;8.98;;;;;;;19.35;72.42;99554.47;5010550;28;20032;-84
2022/09/10 04:23:45;;;;;;;25.98;9.23;;;;;;;18.93;73.43;99497.84;5010798;28;20030;-84
2022/09/10 04:26:13;;;;;;;14.30;9.23;;;;;;;19.66;73.09;99615.22;5004274;28;20550;-84
2022/09/10 04:28:40;;;;;;;18.20;8.57;;;;;;;19.53;72.54;99547.25;4990998;28;20389;-84
2022/09/10 04:31:05;;;;;;;17.25;9.43;;;;;;;19.16;73.00;99522.50;5003039;28;20041;-85
2022/09/10 04:33:32;;;;;;;19.65;9.40;;;;;;;19.42;72.38;99552.34;5000924;28;20385;-84
2022/09/10 04:35:59;;;;;;;19.67;11.40;;;;;;;19.35;73.99;99567.84;5014076;28;20026;-83
2022/09/10 04:38:26;;;;;;;15.32;10.50;;;;;;;19.29;73.07;99510.22;5014314;28;20115;-83
2022/09/10 04:40:51;;;;;;;19.48;10.30;;;;;;;19.53;73.25;99559.78;5014100;28;20038;-84
2022/09/10 04:43:17;;;;;;;18.75;12.07;;;;;;;19.78;73.29;99591.44;5009968;28;20639;-84
2022/09/10 04:45:43;;;;;;;26.23;12.95;;;;;;;19.79;73.39;99571.78;5007338;28;20057;-85
2022/09/10 04:48:09;;;;;;;22.50;13.98;;;;;;;19.64;72.38;99525.28;4994102;28;20042;-84
2022/09/10 04:50:34;;;;;;;19.20;12.48;;;;;;;19.83;72.58;99552.78;4994102;28;20027;-83
2022/09/10 04:53:00;;;;;;;19.42;12.18;;;;;;;20.03;72.96;99577.56;5006291;28;20038;-83
2022/09/10 04:55:26;;;;;;;18.35;11.38;;;;;;;19.68;73.60;99506.28;5013868;28;20030;-84
2022/09/10 04:57:52;;;;;;;22.50;12.35;;;;;;;19.91;72.99;99536.28;5013968;28;20025;-83
2022/09/10 05:00:17;;;;;;;19.48;12.18;;;;;;;19.71;73.25;99480.31;5004473;28;20152;-88
2022/09/10 05:02:43;;;;;;;17.63;11.82;;;;;;;19.85;73.66;99502.69;5001004;28;20496;-85
2022/09/10 05:05:08;;;;;;;24.05;12.18;;;;;;;19.76;74.06;99468.41;4993424;28;20042;-87
2022/09/10 05:07:34;;;;;;;23.25;12.75;;;;;;;19.83;74.15;99504.59;4976473;28;20038;-88
2022/09/10 05:09:59;;;;;;;17.60;12.63;;;;;;;20.15;74.16;99549.22;4997331;28;20489;-90
2022/09/10 05:12:25;;;;;;;18.38;12.65;;;;;;;20.07;74.35;99536.28;5009861;28;20033;-90
2022/09/10 05:14:50;;;;;;;17.35;12.20;;;;;;;20.40;74.26;99570.09;4979637;28;20136;-87
2022/09/10 05:17:16;;;;;;;22.50;12.98;;;;;;;20.26;73.92;99509.31;4993957;28;20116;-88
2022/09/10 05:19:41;;;;;;;21.98;12.88;;;;;;;20.52;73.95;99557.81;4960485;28;20413;-87
2022/09/10 05:22:08;;;;;;;23.42;13.77;;;;;;;20.74;73.45;99571.72;4997776;28;20034;-88
2022/09/10 05:24:34;;;;;;;18.98;12.30;;;;;;;21.19;72.90;99614.63;4996059;28;20124;-89
2022/09/10 05:26:59;;;;;;;20.05;13.07;;;;;;;20.86;72.11;99524.56;5012980;28;20610;-89
2022/09/10 05:29:25;;;;;;;16.45;10.98;;;;;;;20.83;70.82;99524.75;5010666;28;20456;-86
2022/09/10 05:31:50;;;;;;;23.98;11.50;;;;;;;21.09;69.85;99515.09;4977202;28;20046;-87
2022/09/10 05:34:16;;;;;;;16.48;12.43;;;;;;;21.71;68.08;99572.19;5013381;28;20029;-85
2022/09/10 05:36:42;;;;;;;21.60;11.55;;;;;;;21.55;68.62;99526.63;5000892;28;20038;-88
2022/09/10 05:39:08;;;;;;;15.27;11.00;;;;;;;22.05;67.83;99588.81;5010402;28;20119;-92
2022/09/10 05:41:33;;;;;;;14.80;10.48;;;;;;;22.10;67.44;99581.31;4996452;28;20030;-94
2022/09/10 05:43:59;;;;;;;15.80;12.02;;;;;;;22.15;67.59;99573.81;5013985;28;20030;-93
2022/09/10 05:46:25;;;;;;;16.65;11.45;;;;;;;22.07;67.14;99534.03;5014054;28;20497;-89
2022/09/10 05:48:53;;;;;;;18.67;11.80;;;;;;;22.25;66.86;99510.47;4996553;28;20125;-94
2022/09/10 05:51:18;;;;;;;13.60;10.15;;;;;;;22.64;66.09;99543.72;4996199;28;20043;-93
2022/09/10 05:53:44;;;;;;;16.73;9.48;;;;;;;22.77;65.08;99514.19;4991550;28;20038;-92
2022/09/10 05:56:09;;;;;;;38.08;19.85;;;;;;;23.02;63.90;99552.84;4977872;28;20041;-88
2022/09/10 05:58:35;;;;;;;44.20;22.33;;;;;;;23.14;64.39;99572.66;5006537;28;20033;-89
2022/09/10 06:01:01;;;;;;;24.30;14.60;;;;;;;22.87;64.57;99587.88;5009678;28;20689;-86
2022/09/10 06:03:26;;;;;;;40.95;18.20;;;;;;;22.77;63.98;99550.97;5011703;28;20481;-84
2022/09/10 06:05:52;;;;;;;15.43;11.45;;;;;;;23.11;63.11;99527.16;4994288;28;20045;-89
2022/09/10 06:08:21;;;;;;;12.30;10.25;;;;;;;23.26;62.04;99538.69;5011686;28;20049;-87
2022/09/10 06:11:00;;;;;;;13.35;9.57;;;;;;;23.31;61.50;99558.94;4994444;28;20030;-87
2022/09/10 06:13:26;;;;;;;11.75;9.35;;;;;;;23.69;60.67;99549.94;5012205;28;20022;-86
2022/09/10 06:15:52;;;;;;;16.58;9.15;;;;;;;24.34;59.02;99560.56;4998648;28;20034;-87
2022/09/10 06:18:18;;;;;;;21.05;9.60;;;;;;;24.51;58.29;99579.03;4970916;28;20043;-87
2022/09/10 06:20:44;;;;;;;15.23;9.38;;;;;;;24.16;58.56;99504.38;5002990;28;20507;-85
2022/09/10 06:23:16;;;;;;;17.35;10.10;;;;;;;24.52;57.57;99507.13;5007390;28;20045;-87
2022/09/10 06:25:43;;;;;;;11.63;9.02;;;;;;;25.09;57.70;99562.13;4974878;28;20180;-83
2022/09/10 06:28:10;;;;;;;12.85;9.75;;;;;;;25.23;56.62;99588.91;5005220;28;20033;-82
2022/09/10 06:30:36;;;;;;;16.25;7.85;;;;;;;25.64;54.17;99575.84;5018351;28;20171;-83
2022/09/10 06:33:02;;;;;;;12.25;8.88;;;;;;;25.28;55.03;99548.06;5024213;28;20149;-84
2022/09/10 06:35:32;;;;;;;16.45;8.98;;;;;;;25.78;54.51;99574.72;5009501;28;20040;-86
2022/09/10 06:37:58;;;;;;;13.40;8.13;;;;;;;25.92;54.56;99564.53;4998325;28;20037;-87
2022/09/10 06:40:26;;;;;;;15.07;9.40;;;;;;;26.19;52.46;99560.59;4990305;28;20038;-88
2022/09/10 06:42:52;;;;;;;18.38;8.00;;;;;;;26.25;54.18;99545.72;4992293;28;20026;-87
2022/09/10 06:45:18;;;;;;;12.05;7.70;;;;;;;26.02;53.58;99588.16;4974135;28;20570;-87
2022/09/10 06:47:43;;;;;;;12.80;8.50;;;;;;;25.82;52.65;99566.25;4973907;28;20037;-89
2022/09/10 06:50:11;;;;;;;14.82;8.77;;;;;;;25.76;53.22;99564.03;4991899;28;20085;-86
2022/09/10 06:52:38;;;;;;;14.60;9.40;;;;;;;26.15;52.47;99550.16;4992086;28;20115;-87
2022/09/10 06:55:04;;;;;;;15.45;10.23;;;;;;;26.20;52.98;99543.38;4989351;28;20126;-87
2022/09/10 06:57:30;;;;;;;21.92;15.35;;;;;;;26.33;52.01;99512.63;4990653;28;20504;-87
2022/09/10 06:59:55;;;;;;;23.60;14.75;;;;;;;26.27;51.80;99516.69;4991122;28;20045;-87
2022/09/10 07:02:20;;;;;;;17.95;14.20;;;;;;;26.43;52.35;99554.13;4991316;28;20026;-88
2022/09/10 07:04:46;;;;;;;20.52;14.75;;;;;;;25.76;53.65;99558.66;4991363;28;20030;-88
2022/09/10 07:07:12;;;;;;;14.85;13.00;;;;;;;26.50;51.76;99573.41;4991811;28;20080;-87
2022/09/10 07:09:37;;;;;;;17.00;14.52;;;;;;;26.99;50.29;99555.75;4991402;28;20073;-87
2022/09/10 07:12:03;;;;;;;16.73;13.38;;;;;;;26.96;50.19;99537.94;4991883;28;20023;-87
2022/09/10 07:14:29;;;;;;;12.43;9.60;;;;;;;26.96;49.82;99537.94;4991925;28;20038;-86
2022/09/10 07:16:56;;;;;;;14.02;9.20;;;;;;;26.89;49.74;99500.72;4991510;28;20474;-88
2022/09/10 07:19:21;;;;;;;9.93;7.28;;;;;;;27.17;49.30;99512.69;4991964;28;20034;-88
2022/09/10 07:21:47;;;;;;;11.98;7.35;;;;;;;27.41;48.71;99531.38;4991493;28;20038;-89
2022/09/10 07:24:13;;;;;;;9.80;7.05;;;;;;;27.48;50.51;99532.56;4991621;28;20034;-88
2022/09/10 07:26:40;;;;;;;10.20;7.65;;;;;;;27.92;47.91;99513.31;4991982;28;20029;-88
2022/09/10 07:29:06;;;;;;;10.70;7.43;;;;;;;28.02;48.00;99524.22;4991120;28;20034;-87
2022/09/10 07:31:34;;;;;;;29.38;17.75;;;;;;;28.33;45.32;99548.53;4991408;28;20033;-89
2022/09/10 07:34:01;;;;;;;10.45;8.00;;;;;;;27.90;49.12;99574.94;4991357;28;20069;-86
2022/09/10 07:36:27;;;;;;;14.50;7.60;;;;;;;27.80;47.26;99555.91;4991396;28;20061;-88
2022/09/10 07:38:56;;;;;;;10.48;5.72;;;;;;;27.17;48.66;99561.41;4989945;28;20057;-87
2022/09/10 07:41:22;;;;;;;7.90;5.60;;;;;;;27.50;47.51;99552.25;4991515;28;20037;-89
2022/09/10 07:43:52;;;;;;;38.50;16.33;;;;;;;27.55;48.27;99592.47;4990364;28;20417;-89
2022/09/10 07:46:19;;;;;;;44.88;19.88;;;;;;;28.02;48.55;99598.28;4990125;28;20037;-88
2022/09/10 07:48:51;;;;;;;29.60;13.70;;;;;;;27.55;48.02;99522.03;4990625;28;20041;-88
2022/09/10 07:51:18;;;;;;;13.43;6.53;;;;;;;28.05;46.04;99551.03;4991429;28;20034;-87
2022/09/10 07:53:50;;;;;;;11.40;5.63;;;;;;;28.13;46.21;99517.81;4991367;28;20100;-88
2022/09/10 07:56:15;;;;;;;8.15;5.28;;;;;;;28.20;44.58;99491.84;4991234;28;20022;-86
2022/09/10 07:58:41;;;;;;;12.68;8.75;;;;;;;28.76;43.87;99539.16;4991629;28;20037;-88
2022/09/10 08:01:10;;;;;;;6.60;5.30;;;;;;;28.32;44.06;99514.28;4989301;28;20046;-87
2022/09/10 08:03:37;;;;;;;8.57;5.90;;;;;;;28.37;44.62;99530.97;4990069;28;20039;-87
2022/09/10 08:06:03;;;;;;;8.15;5.63;;;;;;;28.72;43.72;99507.88;4992142;28;20165;-87
2022/09/10 08:08:31;;;;;;;14.52;7.05;;;;;;;28.67;44.97;99556.28;4995276;28;20477;-91
2022/09/10 08:11:08;;;;;;;10.10;7.10;;;;;;;29.12;42.50;99544.84;4995150;28;20417;-89
2022/09/10 08:13:40;;;;;;;10.13;7.30;;;;;;;29.26;40.74;99483.78;4994301;28;20031;-91
2022/09/10 08:16:08;;;;;;;17.20;5.32;;;;;;;29.78;40.92;99510.44;4995162;28;20034;-90
2022/09/10 08:18:34;;;;;;;8.05;4.72;;;;;;;29.49;42.01;99480.69;4992962;28;20050;-86
2022/09/10 08:21:01;;;;;;;7.55;5.35;;;;;;;29.84;41.24;99507.13;4993709;28;20428;-90
2022/09/10 08:23:27;;;;;;;10.80;5.50;;;;;;;30.23;41.54;99545.00;4993586;28;20031;-87
2022/09/10 08:25:54;;;;;;;9.13;5.63;;;;;;;29.79;41.26;99517.59;4994953;28;20026;-88
2022/09/10 08:28:21;;;;;;;7.32;4.72;;;;;;;29.83;41.21;99543.50;4994985;28;20042;-89
2022/09/10 08:31:06;;;;;;;7.50;6.03;;;;;;;29.38;41.66;99514.31;5019409;23;20055;-89
2022/09/10 08:33:34;;;;;;;11.02;8.98;;;;;;;29.73;41.30;99510.03;4952621;29;20027;-87
2022/09/10 08:36:00;;;;;;;9.48;8.05;;;;;;;30.24;40.58;99545.84;4940627;29;20035;-89
2022/09/10 08:38:31;;;;;;;6.65;4.97;;;;;;;29.51;44.35;99522.16;4956076;29;20039;-88
2022/09/10 08:40:58;;;;;;;12.85;6.30;;;;;;;29.91;41.93;99523.72;4941627;29;20027;-93
2022/09/10 08:44:03;;;;;;;9.50;6.72;;;;;;;29.98;41.33;99511.19;4951376;29;20035;-90
2022/09/10 08:46:36;;;;;;;8.43;6.53;;;;;;;29.52;41.30;99497.56;4960601;28;20039;-90
2022/09/10 08:49:07;;;;;;;8.18;7.00;;;;;;;29.62;43.08;99560.84;4948442;29;20027;-87
2022/09/10 08:51:47;;;;;;;9.48;7.72;;;;;;;29.14;42.13;99521.09;4955903;29;20038;-91
2022/09/10 08:54:17;;;;;;;15.18;6.00;;;;;;;29.02;42.19;99501.38;4948231;29;20037;-91
2022/09/10 08:56:44;;;;;;;8.98;7.05;;;;;;;28.66;42.35;99514.75;4954535;29;20082;-90
2022/09/10 08:59:34;;;;;;;8.40;6.25;;;;;;;29.37;41.22;99565.09;4939220;29;20042;-92
2022/09/10 09:02:30;;;;;;;8.80;6.28;;;;;;;29.64;41.05;99498.19;4949749;29;20046;-89
2022/09/10 09:05:20;;;;;;;15.10;6.93;;;;;;;30.47;41.08;99519.06;4953750;29;20035;-88
2022/09/10 09:07:48;;;;;;;8.30;5.97;;;;;;;29.79;41.55;99464.06;4950333;29;20047;-89
2022/09/10 09:10:20;;;;;;;8.10;5.95;;;;;;;29.75;41.16;99538.78;4949082;29;20051;-88
2022/09/10 09:13:08;;;;;;;9.70;6.35;;;;;;;29.39;40.89;99491.59;4955450;29;20035;-88
2022/09/10 09:15:50;;;;;;;9.45;7.35;;;;;;;28.78;41.80;99452.16;4954182;29;20090;-88
2022/09/10 09:18:43;;;;;;;8.27;5.88;;;;;;;28.78;43.04;99476.59;4954480;28;20027;-86
2022/09/10 09:21:24;;;;;;;10.93;5.55;;;;;;;28.85;42.89;99467.72;4949844;29;20151;-86
2022/09/10 09:23:54;;;;;;;9.15;6.13;;;;;;;28.89;44.85;99512.56;4937803;29;20039;-87
2022/09/10 09:26:34;;;;;;;9.20;5.47;;;;;;;28.78;43.29;99465.72;4953891;29;20506;-87
2022/09/10 09:29:25;;;;;;;9.52;5.72;;;;;;;29.11;42.40;99503.22;4955043;28;20039;-86
2022/09/10 09:32:38;;;;;;;5.95;4.78;;;;;;;28.93;41.68;99446.13;4906952;29;20079;-86
2022/09/10 09:35:16;;;;;;;16.02;7.60;;;;;;;28.77;42.64;99426.03;4918460;29;20062;-86
2022/09/10 09:37:53;;;;;;;11.38;5.30;;;;;;;28.45;43.74;99424.47;4935873;29;20039;-87
2022/09/10 09:40:36;;;;;;;11.00;6.38;;;;;;;28.21;44.03;99406.81;4918406;29;20043;-85
2022/09/10 09:43:25;;;;;;;7.57;5.68;;;;;;;29.07;43.25;99442.09;4918404;29;20573;-85
2022/09/10 09:45:52;;;;;;;6.65;5.13;;;;;;;29.33;41.24;99438.72;4908416;29;20063;-88
2022/09/10 09:48:19;;;;;;;10.07;5.63;;;;;;;29.60;40.91;99443.31;4918278;29;20039;-88
2022/09/10 09:50:54;;;;;;;6.78;5.38;;;;;;;29.46;41.17;99413.94;4918125;29;20114;-88
2022/09/10 09:53:27;;;;;;;11.15;5.95;;;;;;;29.41;40.62;99387.22;4918667;29;20031;-87
2022/09/10 09:56:42;;;;;;;9.82;5.95;;;;;;;29.97;39.54;99436.94;4918317;29;20047;-88
2022/09/10 09:59:26;;;;;;;7.15;5.70;;;;;;;29.50;41.15;99404.47;4913494;29;20046;-88
2022/09/10 10:01:53;;;;;;;;;;;;;;;29.93;41.31;99431.97;4918367;29;20039;-87
2022/09/10 10:04:25;;;;;;;9.85;6.43;;;;;;;29.79;41.10;99358.06;4917237;29;19921;-84
2022/09/10 10:06:59;;;;;;;10.77;5.18;;;;;;;29.50;41.65;99374.56;4920239;29;20050;-87
2022/09/10 10:09:40;;;;;;;7.40;4.22;;;;;;;29.73;41.27;99393.16;4947827;29;20078;-87
2022/09/10 10:12:07;;;;;;;10.50;5.82;;;;;;;29.68;41.64;99376.47;4918932;29;20036;-85
2022/09/10 10:14:38;;;;;;;9.15;4.55;;;;;;;29.77;41.70;99346.50;4945713;29;20028;-86
2022/09/10 10:17:23;;;;;;;8.35;5.25;;;;;;;29.77;40.39;99365.53;4934591;29;20058;-87
2022/09/10 10:20:15;;;;;;;8.90;5.53;;;;;;;29.90;41.06;99372.47;4915952;29;20037;-88
2022/09/10 10:22:47;;;;;;;8.48;4.97;;;;;;;29.32;41.53;99328.38;4898517;29;20427;-86
2022/09/10 10:25:39;;;;;;;6.88;4.57;;;;;;;29.92;42.08;99403.94;4918020;28;20031;-86
2022/09/10 10:28:26;;;;;;;8.40;4.35;;;;;;;30.31;40.82;99402.78;4951937;28;20130;-86
2022/09/10 10:30:59;;;;;;;7.95;5.60;;;;;;;30.22;40.18;99373.78;4958680;28;20050;-86
2022/09/10 10:33:32;;;;;;;6.30;4.50;;;;;;;30.30;41.24;99338.47;4975451;28;20544;-87
2022/09/10 10:36:21;;;;;;;8.70;5.63;;;;;;;30.48;40.58;99349.38;4965215;28;20134;-87
2022/09/10 10:39:02;;;;;;;5.35;4.50;;;;;;;30.67;40.55;99345.56;4958721;28;20520;-86
2022/09/10 10:41:49;;;;;;;7.18;5.22;;;;;;;30.64;39.85;99348.59;4967349;28;20027;-86
2022/09/10 10:44:37;;;;;;;7.78;4.78;;;;;;;30.32;40.38;99314.69;4957255;28;20527;-86
2022/09/10 10:47:32;;;;;;;8.05;5.55;;;;;;;30.61;40.45;99338.88;4954055;28;20019;-89
2022/09/10 10:50:17;;;;;;;7.15;5.43;;;;;;;30.05;41.19;99304.81;4967708;28;20041;-87
2022/09/10 10:53:14;;;;;;;7.97;4.88;;;;;;;30.52;40.76;99370.66;4963950;28;20465;-89
2022/09/10 10:55:57;;;;;;;6.68;4.85;;;;;;;30.79;40.13;99366.03;4952598;28;20027;-86
2022/09/10 10:58:50;;;;;;;6.50;5.15;;;;;;;30.40;41.26;99358.31;4986315;28;20038;-89
2022/09/10 11:01:26;;;;;;;6.53;4.15;;;;;;;29.93;40.50;99274.28;4970479;28;20074;-89
2022/09/10 11:04:08;;;;;;;8.73;5.45;;;;;;;30.52;39.96;99356.19;4969749;28;20037;-88
2022/09/10 11:06:40;;;;;;;15.38;6.43;;;;;;;30.23;40.43;99273.00;4974431;28;20030;-90
2022/09/10 11:09:25;;;;;;;9.20;5.22;;;;;;;30.69;40.19;99354.41;4989007;28;20092;-94
2022/09/10 11:11:54;;;;;;;9.98;6.00;;;;;;;30.68;40.33;99342.69;4968918;28;20030;-92
2022/09/10 11:14:44;;;;;;;9.25;6.72;;;;;;;30.69;43.17;99340.78;4952232;29;20031;-91
2022/09/10 11:17:19;;;;;;;7.70;5.60;;;;;;;30.23;42.77;99267.56;4960865;28;20022;-87
2022/09/10 11:20:04;;;;;;;10.02;5.30;;;;;;;30.53;40.70;99339.69;4990137;28;20026;-87
2022/09/10 11:22:38;;;;;;;8.63;5.38;;;;;;;30.26;40.75;99291.72;4990568;28;20191;-90
2022/09/10 11:25:25;;;;;;;11.68;5.90;;;;;;;30.84;40.64;99327.44;4990253;28;20042;-89
2022/09/10 11:27:56;;;;;;;9.20;6.32;;;;;;;30.35;42.92;99308.94;4990271;28;20088;-90
2022/09/10 11:30:22;;;;;;;8.52;6.20;;;;;;;30.43;41.04;99281.81;4989848;28;20058;-90
2022/09/10 11:33:22;;;;;;;7.03;5.28;;;;;;;30.36;42.59;99265.25;4991276;28;20113;-88
2022/09/10 11:36:08;;;;;;;7.30;5.80;;;;;;;30.46;40.52;99299.69;4977675;28;20468;-90
2022/09/10 11:38:36;;;;;;;6.50;5.07;;;;;;;31.12;40.52;99314.47;4985463;28;20080;-89
2022/09/10 11:41:24;;;;;;;6.15;4.78;;;;;;;31.31;39.53;99309.78;4990856;28;20085;-90
2022/09/10 11:44:48;;;;;;;8.57;5.25;;;;;;;31.36;39.58;99272.84;4976776;28;20031;-91